createdAt,value
2019-04-10T00:00:21.023Z,101537.73
2019-04-10T00:02:50.039Z,101539.72
2019-04-10T00:05:18.112Z,101531.75
2019-04-10T00:07:46.104Z,101526.64
2019-04-10T00:10:13.951Z,101534.13
2019-04-10T00:12:42.297Z,101532.80
2019-04-10T00:15:10.405Z,101530.41
2019-04-10T00:17:38.259Z,101536.80
2019-04-10T00:20:07.866Z,101537.48
2019-04-10T00:22:35.973Z,101538.43
2019-04-10T00:25:04.328Z,101538.74
2019-04-10T00:27:32.140Z,101540.89
2019-04-10T00:30:00.632Z,101543.02
2019-04-10T00:32:28.631Z,101540.31
2019-04-10T00:34:56.573Z,101544.89
2019-04-10T00:37:28.483Z,101544.05
2019-04-10T00:39:55.062Z,101542.39
2019-04-10T00:42:23.148Z,101544.94
2019-04-10T00:44:52.191Z,101543.58
2019-04-10T00:47:21.142Z,101544.70
2019-04-10T00:49:50.279Z,101538.86
2019-04-10T00:52:18.428Z,101547.77
2019-04-10T00:54:46.875Z,101543.30
2019-04-10T00:57:15.029Z,101547.45
2019-04-10T00:59:44.006Z,101548.84
2019-04-10T01:02:12.232Z,101553.38
2019-04-10T01:04:40.239Z,101551.44
2019-04-10T01:07:08.640Z,101549.26
2019-04-10T01:09:37.518Z,101550.01
2019-04-10T01:12:05.786Z,101550.97
2019-04-10T01:14:33.960Z,101549.69
2019-04-10T01:17:02.235Z,101554.88
2019-04-10T01:19:30.123Z,101552.84
2019-04-10T01:21:58.903Z,101561.33
2019-04-10T01:24:27.900Z,101555.53
2019-04-10T01:26:55.980Z,101548.98
2019-04-10T01:29:25.076Z,101552.89
2019-04-10T01:31:53.182Z,101556.55
2019-04-10T01:34:21.236Z,101559.66
2019-04-10T01:36:49.175Z,101565.15
2019-04-10T01:39:22.252Z,101554.20
2019-04-10T01:41:50.386Z,101559.02
2019-04-10T01:44:18.203Z,101558.70
2019-04-10T01:46:46.550Z,101561.52
2019-04-10T01:49:15.643Z,101560.72
2019-04-10T01:51:43.780Z,101564.70
2019-04-10T01:54:11.738Z,101560.67
2019-04-10T01:56:39.785Z,101564.66
2019-04-10T01:59:07.788Z,101568.23
2019-04-10T02:01:40.848Z,101571.30
2019-04-10T02:04:08.963Z,101568.31
2019-04-10T02:06:38.260Z,101573.94
2019-04-10T02:09:08.765Z,101556.03
2019-04-10T02:11:37.652Z,101571.54
2019-04-10T02:14:05.704Z,101577.16
2019-04-10T02:16:34.734Z,101583.53
2019-04-10T02:19:02.885Z,101579.34
2019-04-10T02:21:31.743Z,101576.91
2019-04-10T02:24:00.898Z,101576.06
2019-04-10T02:26:29.695Z,101573.00
2019-04-10T02:28:57.954Z,101573.72
2019-04-10T02:31:28.005Z,101573.46
2019-04-10T02:33:58.075Z,101561.47
2019-04-10T02:36:27.786Z,101573.20
2019-04-10T02:39:08.540Z,101576.27
2019-04-10T02:41:25.689Z,101576.06
2019-04-10T02:43:53.783Z,101582.45
2019-04-10T02:46:22.126Z,101582.00
2019-04-10T02:48:50.534Z,101582.19
2019-04-10T02:51:20.152Z,101581.55
2019-04-10T02:53:50.175Z,101579.05
2019-04-10T02:56:20.873Z,101585.63
2019-04-10T02:58:49.422Z,101580.78
2019-04-10T03:01:19.897Z,101576.99
2019-04-10T03:03:47.812Z,101583.38
2019-04-10T03:06:15.721Z,101577.59
2019-04-10T03:08:59.060Z,101582.33
2019-04-10T03:11:14.535Z,101579.59
2019-04-10T03:13:45.008Z,101585.31
2019-04-10T03:16:13.998Z,101589.84
2019-04-10T03:18:43.099Z,101585.15
2019-04-10T03:21:12.166Z,101592.97
2019-04-10T03:23:41.776Z,101594.87
2019-04-10T03:26:09.793Z,101593.92
2019-04-10T03:28:38.843Z,101598.94
2019-04-10T03:31:07.984Z,101594.78
2019-04-10T03:33:49.385Z,101600.44
2019-04-10T03:36:16.047Z,101605.05
2019-04-10T03:38:55.505Z,101603.09
2019-04-10T03:41:13.803Z,101602.67
2019-04-10T03:43:41.745Z,101613.11
2019-04-10T03:46:10.903Z,101612.98
2019-04-10T03:48:39.003Z,101612.41
2019-04-10T03:51:08.091Z,101613.14
2019-04-10T03:53:36.174Z,101617.97
2019-04-10T03:56:04.053Z,101609.67
2019-04-10T03:58:31.976Z,101615.19
2019-04-10T04:01:00.737Z,101613.11
2019-04-10T04:03:28.760Z,101622.64
2019-04-10T04:05:57.242Z,101616.91
2019-04-10T04:08:25.678Z,101619.25
2019-04-10T04:10:53.782Z,101616.97
2019-04-10T04:13:21.754Z,101620.49
2019-04-10T04:15:50.559Z,101620.49
2019-04-10T04:18:19.270Z,101626.21
2019-04-10T04:20:47.558Z,101626.16
2019-04-10T04:23:15.703Z,101624.33
2019-04-10T04:25:43.670Z,101623.05
2019-04-10T04:28:11.509Z,101612.07
2019-04-10T04:30:40.416Z,101629.31
2019-04-10T04:33:08.877Z,101633.99
2019-04-10T04:35:36.886Z,101637.36
2019-04-10T04:38:04.713Z,101640.41
2019-04-10T04:40:33.632Z,101643.98
2019-04-10T04:43:01.466Z,101647.45
2019-04-10T04:45:29.999Z,101655.50
2019-04-10T04:47:58.094Z,101651.72
2019-04-10T04:50:26.991Z,101660.36
2019-04-10T04:52:54.935Z,101659.88
2019-04-10T04:55:23.001Z,101660.86
2019-04-10T04:57:51.114Z,101665.36
2019-04-10T05:00:18.932Z,101667.91
2019-04-10T05:02:47.009Z,101671.25
2019-04-10T05:05:15.128Z,101680.23
2019-04-10T05:07:54.132Z,101678.95
2019-04-10T05:10:13.239Z,101695.44
2019-04-10T05:12:43.232Z,101693.41
2019-04-10T05:15:11.650Z,101691.84
2019-04-10T05:17:39.712Z,101696.60
2019-04-10T05:20:07.789Z,101688.16
2019-04-10T05:22:35.945Z,101700.31
2019-04-10T05:25:04.808Z,101707.19
2019-04-10T05:27:33.141Z,101718.30
2019-04-10T05:30:02.087Z,101729.45
2019-04-10T05:32:30.741Z,101718.02
2019-04-10T05:34:58.903Z,101720.06
2019-04-10T05:37:27.521Z,101724.61
2019-04-10T05:40:01.538Z,101717.69
2019-04-10T05:42:29.640Z,101737.50
2019-04-10T05:44:58.684Z,101733.52
2019-04-10T05:47:26.596Z,101739.38
2019-04-10T05:49:55.536Z,101737.17
2019-04-10T05:52:23.621Z,101740.96
2019-04-10T05:54:51.674Z,101743.08
2019-04-10T05:57:20.176Z,101740.16
2019-04-10T05:59:48.190Z,101744.74
2019-04-10T06:02:16.240Z,101753.38
2019-04-10T06:04:47.837Z,101749.17
2019-04-10T06:07:15.686Z,101747.70
2019-04-10T06:09:54.001Z,101754.25
2019-04-10T06:12:16.066Z,101753.81
2019-04-10T06:14:44.235Z,101757.54
2019-04-10T06:17:12.572Z,101754.52
2019-04-10T06:19:40.629Z,101755.11
2019-04-10T06:22:09.795Z,101753.70
2019-04-10T06:24:38.570Z,101754.45
2019-04-10T06:27:06.350Z,101758.31
2019-04-10T06:29:35.138Z,101758.92
2019-04-10T06:32:03.328Z,101751.58
2019-04-10T06:34:32.259Z,101751.84
2019-04-10T06:37:00.235Z,101750.51
2019-04-10T06:39:28.897Z,101759.15
2019-04-10T06:41:58.193Z,101755.50
2019-04-10T06:44:26.165Z,101758.10
2019-04-10T06:46:54.988Z,101761.55
2019-04-10T06:49:23.079Z,101754.17
2019-04-10T06:51:53.457Z,101757.61
2019-04-10T06:54:21.394Z,101758.78
2019-04-10T06:56:50.279Z,101757.54
2019-04-10T06:59:18.498Z,101767.42
2019-04-10T07:01:51.331Z,101767.95
2019-04-10T07:04:21.025Z,101772.67
2019-04-10T07:06:57.492Z,101768.30
2019-04-10T07:09:21.387Z,101768.45
2019-04-10T07:11:55.559Z,101766.45
2019-04-10T07:14:20.462Z,101767.52
2019-04-10T07:16:53.140Z,101767.09
2019-04-10T07:19:21.379Z,101767.98
2019-04-10T07:21:51.597Z,101777.80
2019-04-10T07:24:19.404Z,101777.80
2019-04-10T07:26:49.356Z,101781.92
2019-04-10T07:29:21.027Z,101783.38
2019-04-10T07:31:47.169Z,101788.89
2019-04-10T07:34:15.137Z,101797.84
2019-04-10T07:36:43.913Z,101799.73
2019-04-10T07:39:13.174Z,101810.65
2019-04-10T07:41:41.815Z,101796.74
2019-04-10T07:44:10.037Z,101806.86
2019-04-10T07:46:38.258Z,101805.89
2019-04-10T07:49:06.429Z,101803.61
2019-04-10T07:51:34.555Z,101799.96
2019-04-10T07:54:02.393Z,101796.73
2019-04-10T07:56:31.169Z,101792.16
2019-04-10T07:59:00.453Z,101795.81
2019-04-10T08:01:28.496Z,101793.75
2019-04-10T08:03:57.576Z,101796.66
2019-04-10T08:06:25.663Z,101800.42
2019-04-10T08:08:53.761Z,101800.55
2019-04-10T08:11:21.918Z,101806.39
2019-04-10T08:13:51.144Z,101800.05
2019-04-10T08:16:19.136Z,101799.47
2019-04-10T08:18:47.787Z,101800.06
2019-04-10T08:21:16.068Z,101797.28
2019-04-10T08:23:51.429Z,101800.66
2019-04-10T08:26:21.282Z,101795.41
2019-04-10T08:28:49.692Z,101799.05
2019-04-10T08:31:18.987Z,101802.16
2019-04-10T08:33:47.417Z,101809.20
2019-04-10T08:36:15.309Z,101803.81
2019-04-10T08:38:43.219Z,101800.66
2019-04-10T08:41:11.329Z,101805.30
2019-04-10T08:43:39.666Z,101802.27
2019-04-10T08:46:08.637Z,101800.39
2019-04-10T08:48:36.785Z,101798.77
2019-04-10T08:51:04.783Z,101804.23
2019-04-10T08:53:32.602Z,101799.88
2019-04-10T08:56:07.313Z,101803.35
2019-04-10T08:58:35.924Z,101805.03
2019-04-10T09:01:07.201Z,101796.94
2019-04-10T09:03:35.209Z,101802.60
2019-04-10T09:06:03.136Z,101801.81
2019-04-10T09:08:31.145Z,101802.83
2019-04-10T09:10:59.157Z,101810.59
2019-04-10T09:13:27.162Z,101806.51
2019-04-10T09:15:56.165Z,101809.06
2019-04-10T09:18:25.169Z,101813.28
2019-04-10T09:20:53.328Z,101809.86
2019-04-10T09:23:30.734Z,101811.84
2019-04-10T09:25:51.284Z,101812.27
2019-04-10T09:28:19.245Z,101815.91
2019-04-10T09:30:47.274Z,101814.07
2019-04-10T09:33:21.396Z,101814.61
2019-04-10T09:35:45.337Z,101819.98
2019-04-10T09:38:13.345Z,101817.52
2019-04-10T09:40:41.174Z,101820.41
2019-04-10T09:43:09.354Z,101815.53
2019-04-10T09:45:37.473Z,101823.00
2019-04-10T09:48:06.359Z,101816.92
2019-04-10T09:50:35.410Z,101822.82
2019-04-10T09:53:04.137Z,101817.52
2019-04-10T09:55:32.155Z,101814.61
2019-04-10T09:58:00.225Z,101818.59
2019-04-10T10:00:29.926Z,101818.00
2019-04-10T10:02:57.821Z,101817.67
2019-04-10T10:05:26.562Z,101820.45
2019-04-10T10:07:56.213Z,101818.55
2019-04-10T10:10:24.692Z,101817.70
2019-04-10T10:12:52.725Z,101819.84
2019-04-10T10:15:21.092Z,101826.74
2019-04-10T10:17:49.212Z,101825.42
2019-04-10T10:20:17.958Z,101826.62
2019-04-10T10:22:45.789Z,101823.25
2019-04-10T10:25:13.877Z,101816.39
2019-04-10T10:27:42.690Z,101818.89
2019-04-10T10:30:11.659Z,101821.93
2019-04-10T10:32:39.818Z,101825.53
2019-04-10T10:35:07.649Z,101819.94
2019-04-10T10:37:36.613Z,101816.63
2019-04-10T10:40:08.348Z,101812.23
2019-04-10T10:42:38.551Z,101819.14
2019-04-10T10:45:08.679Z,101812.78
2019-04-10T10:47:36.523Z,101810.66
2019-04-10T10:50:06.649Z,101812.08
2019-04-10T10:52:35.454Z,101809.92
2019-04-10T10:55:05.359Z,101811.89
2019-04-10T10:57:33.382Z,101802.89
2019-04-10T11:00:02.134Z,101806.05
2019-04-10T11:02:30.245Z,101806.70
2019-04-10T11:05:00.951Z,101811.85
2019-04-10T11:07:28.797Z,101804.73
2019-04-10T11:09:56.986Z,101811.81
2019-04-10T11:12:26.275Z,101808.69
2019-04-10T11:14:54.416Z,101811.04
2019-04-10T11:17:22.332Z,101808.98
2019-04-10T11:19:51.374Z,101813.88
2019-04-10T11:22:22.694Z,101809.41
2019-04-10T11:24:49.415Z,101804.09
2019-04-10T11:27:17.997Z,101801.88
2019-04-10T11:29:46.758Z,101809.41
2019-04-10T11:32:14.948Z,101808.07
2019-04-10T11:34:42.919Z,101810.66
2019-04-10T11:37:23.471Z,101805.88
2019-04-10T11:39:43.531Z,101809.71
2019-04-10T11:42:10.540Z,101800.09
2019-04-10T11:44:39.672Z,101805.72
2019-04-10T11:47:10.036Z,101812.69
2019-04-10T11:49:42.772Z,101812.83
2019-04-10T11:52:10.359Z,101808.33
2019-04-10T11:54:41.279Z,101813.03
2019-04-10T11:57:07.617Z,101814.23
2019-04-10T11:59:37.972Z,101817.64
2019-04-10T12:02:06.685Z,101821.39
2019-04-10T12:04:45.300Z,101813.39
2019-04-10T12:07:06.006Z,101821.23
2019-04-10T12:12:04.126Z,101817.09
2019-04-10T12:14:31.974Z,101823.84
2019-04-10T12:17:01.245Z,101818.44
2019-04-10T12:19:29.364Z,101819.19
2019-04-10T12:21:58.019Z,101826.47
2019-04-10T12:24:26.078Z,101824.67
2019-04-10T12:26:54.221Z,101818.20
2019-04-10T12:29:22.548Z,101815.06
2019-04-10T12:31:50.873Z,101814.41
2019-04-10T12:34:20.164Z,101818.66
2019-04-10T12:36:48.947Z,101815.05
2019-04-10T12:39:18.306Z,101815.39
2019-04-10T12:41:46.307Z,101816.61
2019-04-10T12:44:14.137Z,101820.83
2019-04-10T12:46:42.202Z,101811.73
2019-04-10T12:49:10.037Z,101820.83
2019-04-10T12:51:38.245Z,101820.95
2019-04-10T12:54:06.350Z,101819.41
2019-04-10T12:56:34.616Z,101817.64
2019-04-10T12:59:03.417Z,101822.57
2019-04-10T13:01:31.498Z,101828.80
2019-04-10T13:03:59.844Z,101824.30
2019-04-10T13:06:28.133Z,101827.27
2019-04-10T13:09:05.761Z,101820.70
2019-04-10T13:11:26.869Z,101826.17
2019-04-10T13:13:55.037Z,101835.74
2019-04-10T13:16:23.833Z,101834.77
2019-04-10T13:18:52.350Z,101837.17
2019-04-10T13:21:22.238Z,101832.02
2019-04-10T13:23:50.067Z,101836.30
2019-04-10T13:26:18.076Z,101824.62
2019-04-10T13:28:46.027Z,101836.20
2019-04-10T13:31:14.110Z,101835.05
2019-04-10T13:33:42.306Z,101832.30
2019-04-10T13:36:11.291Z,101834.20
2019-04-10T13:38:39.460Z,101827.87
2019-04-10T13:41:08.150Z,101827.66
2019-04-10T13:43:36.053Z,101826.91
2019-04-10T13:46:04.884Z,101827.02
2019-04-10T13:48:33.448Z,101831.45
2019-04-10T13:51:01.468Z,101825.52
2019-04-10T13:53:30.200Z,101827.39
2019-04-10T13:55:59.004Z,101825.41
2019-04-10T13:58:28.838Z,101829.66
2019-04-10T14:00:57.079Z,101827.58
2019-04-10T14:03:25.936Z,101825.50
2019-04-10T14:05:54.858Z,101832.11
2019-04-10T14:08:36.075Z,101828.25
2019-04-10T14:10:53.025Z,101839.44
2019-04-10T14:13:21.975Z,101829.09
2019-04-10T14:15:50.483Z,101829.29
2019-04-10T14:18:18.654Z,101832.55
2019-04-10T14:20:47.843Z,101834.87
2019-04-10T14:23:20.018Z,101823.53
2019-04-10T14:26:10.658Z,101831.27
2019-04-10T14:28:38.774Z,101829.00
2019-04-10T14:31:14.087Z,101836.47
2019-04-10T14:33:42.162Z,101837.80
2019-04-10T14:36:11.748Z,101840.27
2019-04-10T14:38:39.845Z,101842.74
2019-04-10T14:41:07.785Z,101846.72
2019-04-10T14:43:35.656Z,101844.98
2019-04-10T14:46:06.133Z,101840.63
2019-04-10T14:48:34.182Z,101849.74
2019-04-10T14:51:02.133Z,101847.22
2019-04-10T14:53:31.059Z,101849.36
2019-04-10T14:55:59.873Z,101845.15
2019-04-10T14:58:30.849Z,101849.44
2019-04-10T15:00:57.773Z,101856.23
2019-04-10T15:03:26.528Z,101856.53
2019-04-10T15:05:56.969Z,101857.44
2019-04-10T15:08:25.855Z,101854.03
2019-04-10T15:10:53.987Z,101859.41
2019-04-10T15:13:24.442Z,101857.44
2019-04-10T15:15:53.607Z,101855.09
2019-04-10T15:18:22.507Z,101856.27
2019-04-10T15:20:50.483Z,101854.02
2019-04-10T15:23:18.436Z,101857.27
2019-04-10T15:25:47.096Z,101859.55
2019-04-10T15:28:16.092Z,101853.27
2019-04-10T15:30:44.557Z,101858.25
2019-04-10T15:33:12.571Z,101862.61
2019-04-10T15:35:40.398Z,101851.39
2019-04-10T15:38:09.567Z,101869.62
2019-04-10T15:40:38.577Z,101860.00
2019-04-10T15:43:06.828Z,101864.28
2019-04-10T15:45:35.771Z,101865.27
2019-04-10T15:48:04.794Z,101870.34
2019-04-10T15:50:34.663Z,101868.74
2019-04-10T15:53:02.696Z,101869.86
2019-04-10T15:55:30.635Z,101873.31
2019-04-10T15:58:01.244Z,101870.03
2019-04-10T16:00:29.461Z,101870.52
2019-04-10T16:02:57.476Z,101870.34
2019-04-10T16:05:25.766Z,101867.70
2019-04-10T16:07:55.192Z,101878.23
2019-04-10T16:10:58.448Z,101872.22
2019-04-10T16:13:52.672Z,101874.63
2019-04-10T16:16:49.236Z,101877.09
2019-04-10T16:19:38.844Z,101867.36
2019-04-10T16:22:29.628Z,101882.68
2019-04-10T16:25:01.059Z,101883.53
2019-04-10T16:27:29.092Z,101872.38
2019-04-10T16:30:01.536Z,101890.58
2019-04-10T16:32:29.195Z,101895.33
2019-04-10T16:34:57.255Z,101894.66
2019-04-10T16:37:26.266Z,101906.04
2019-04-10T16:40:00.341Z,101899.17
2019-04-10T16:42:24.482Z,101897.27
2019-04-10T16:44:53.349Z,101908.06
2019-04-10T16:47:22.632Z,101903.77
2019-04-10T16:49:50.977Z,101905.34
2019-04-10T16:52:20.930Z,101909.42
2019-04-10T16:54:49.313Z,101910.30
2019-04-10T16:57:18.503Z,101918.04
2019-04-10T16:59:46.775Z,101920.94
2019-04-10T17:02:15.607Z,101925.67
2019-04-10T17:04:43.887Z,101916.30
2019-04-10T17:07:11.767Z,101923.14
2019-04-10T17:09:40.778Z,101925.30
2019-04-10T17:12:09.453Z,101923.66
2019-04-10T17:14:37.872Z,101920.42
2019-04-10T17:17:06.234Z,101925.83
2019-04-10T17:19:46.561Z,101929.77
2019-04-10T17:22:04.778Z,101931.09
2019-04-10T17:24:33.494Z,101928.22
2019-04-10T17:27:01.614Z,101936.75
2019-04-10T17:29:29.647Z,101941.39
2019-04-10T17:31:57.707Z,101936.04
2019-04-10T17:34:25.570Z,101940.50
2019-04-10T17:36:53.788Z,101946.69
2019-04-10T17:39:22.892Z,101946.73
2019-04-10T17:41:52.151Z,101953.45
2019-04-10T17:44:21.301Z,101964.27
2019-04-10T17:46:49.314Z,101962.31
2019-04-10T17:49:17.160Z,101967.26
2019-04-10T17:51:45.953Z,101973.56
2019-04-10T17:54:14.199Z,101983.08
2019-04-10T17:56:42.249Z,101969.84
2019-04-10T17:59:10.227Z,101978.31
2019-04-10T18:01:41.097Z,101983.76
2019-04-10T18:04:09.556Z,101978.98
2019-04-10T18:06:37.528Z,101982.04
2019-04-10T18:09:08.302Z,101992.17
2019-04-10T18:11:37.320Z,101988.58
2019-04-10T18:14:05.327Z,101993.94
2019-04-10T18:16:33.880Z,102007.84
2019-04-10T18:19:02.260Z,102002.92
2019-04-10T18:21:30.862Z,102005.69
2019-04-10T18:23:59.980Z,102015.75
2019-04-10T18:26:27.993Z,102011.83
2019-04-10T18:28:56.150Z,102016.41
2019-04-10T18:31:26.493Z,102025.59
2019-04-10T18:33:55.108Z,102026.53
2019-04-10T18:36:24.257Z,102030.75
2019-04-10T18:38:52.696Z,102036.14
2019-04-10T18:41:20.751Z,102035.67
2019-04-10T18:43:49.486Z,102045.42
2019-04-10T18:46:20.802Z,102043.95
2019-04-10T18:48:49.573Z,102052.38
2019-04-10T18:51:21.426Z,102061.33
2019-04-10T18:53:49.729Z,102064.92
2019-04-10T18:56:18.623Z,102071.51
2019-04-10T18:59:00.507Z,102071.46
2019-04-10T19:01:43.258Z,102078.31
2019-04-10T19:04:16.280Z,102089.44
2019-04-10T19:06:58.617Z,102094.42
2019-04-10T19:09:33.140Z,102100.16
2019-04-10T19:12:02.455Z,102111.27
2019-04-10T19:14:30.716Z,102105.45
2019-04-10T19:17:02.580Z,102117.67
2019-04-10T19:19:30.711Z,102118.05
2019-04-10T19:21:59.953Z,102116.83
2019-04-10T19:24:30.222Z,102128.86
2019-04-10T19:26:58.424Z,102132.66
2019-04-10T19:29:27.602Z,102143.66
2019-04-10T19:31:58.468Z,102134.64
2019-04-10T19:34:27.589Z,102144.64
2019-04-10T19:36:58.387Z,102147.18
2019-04-10T19:39:27.728Z,102149.05
2019-04-10T19:41:55.789Z,102156.92
2019-04-10T19:44:23.814Z,102160.52
2019-04-10T19:46:52.020Z,102157.28
2019-04-10T19:49:20.346Z,102164.06
2019-04-10T19:51:48.751Z,102165.25
2019-04-10T19:54:17.812Z,102169.92
2019-04-10T19:56:45.917Z,102173.95
2019-04-10T19:59:14.536Z,102174.73
2019-04-10T20:01:43.001Z,102172.81
2019-04-10T20:04:12.342Z,102170.27
2019-04-10T20:06:40.836Z,102178.08
2019-04-10T20:09:10.380Z,102181.44
2019-04-10T20:11:43.406Z,102181.23
2019-04-10T20:14:10.526Z,102168.84
2019-04-10T20:16:41.562Z,102188.91
2019-04-10T20:19:10.281Z,102177.61
2019-04-10T20:21:38.268Z,102192.36
2019-04-10T20:24:06.320Z,102203.89
2019-04-10T20:26:34.919Z,102205.16
2019-04-10T20:29:02.841Z,102203.02
2019-04-10T20:31:33.188Z,102216.61
2019-04-10T20:34:01.500Z,102211.27
2019-04-10T20:36:29.595Z,102218.94
2019-04-10T20:38:57.484Z,102219.77
2019-04-10T20:41:26.464Z,102226.16
2019-04-10T20:43:55.382Z,102233.62
2019-04-10T20:46:24.308Z,102234.94
2019-04-10T20:48:55.049Z,102235.00
2019-04-10T20:51:23.167Z,102238.89
2019-04-10T20:53:51.035Z,102240.58
2019-04-10T20:56:19.907Z,102243.69
2019-04-10T20:58:49.232Z,102238.05
2019-04-10T21:01:17.169Z,102247.72
2019-04-10T21:03:46.386Z,102250.59
2019-04-10T21:06:15.514Z,102251.63
2019-04-10T21:08:44.608Z,102261.42
2019-04-10T21:11:13.858Z,102264.62
2019-04-10T21:13:43.067Z,102267.50
2019-04-10T21:16:11.335Z,102268.84
2019-04-10T21:18:39.772Z,102273.52
2019-04-10T21:21:08.155Z,102270.87
2019-04-10T21:23:36.103Z,102272.80
2019-04-10T21:26:04.091Z,102272.11
2019-04-10T21:28:32.048Z,102274.61
2019-04-10T21:31:10.050Z,102274.72
2019-04-10T21:33:56.842Z,102274.69
2019-04-10T21:36:26.185Z,102274.45
2019-04-10T21:38:54.689Z,102272.88
2019-04-10T21:41:22.824Z,102271.66
2019-04-10T21:43:51.994Z,102273.03
2019-04-10T21:46:20.301Z,102260.59
2019-04-10T21:48:48.890Z,102283.16
2019-04-10T21:51:17.105Z,102281.98
2019-04-10T21:53:45.178Z,102282.70
2019-04-10T21:56:13.324Z,102281.77
2019-04-10T21:58:42.962Z,102278.33
2019-04-10T22:01:13.390Z,102279.25
2019-04-10T22:03:41.559Z,102281.47
2019-04-10T22:06:15.784Z,102287.89
2019-04-10T22:09:22.838Z,102287.41
2019-04-10T22:11:53.142Z,102289.30
2019-04-10T22:14:21.491Z,102294.87
2019-04-10T22:16:50.533Z,102296.61
2019-04-10T22:19:19.914Z,102297.58
2019-04-10T22:21:48.495Z,102299.76
2019-04-10T22:24:16.322Z,102306.73
2019-04-10T22:26:44.576Z,102306.70
2019-04-10T22:29:12.495Z,102302.31
2019-04-10T22:31:41.571Z,102307.04
2019-04-10T22:34:10.393Z,102303.19
2019-04-10T22:36:39.537Z,102309.15
2019-04-10T22:39:12.429Z,102306.16
2019-04-10T22:41:40.677Z,102303.22
2019-04-10T22:44:09.640Z,102304.09
2019-04-10T22:46:38.397Z,102301.02
2019-04-10T22:49:06.486Z,102313.72
2019-04-10T22:51:35.580Z,102309.28
2019-04-10T22:54:04.058Z,102308.41
2019-04-10T22:56:32.241Z,102308.83
2019-04-10T22:59:00.076Z,102310.89
2019-04-10T23:01:29.119Z,102312.38
2019-04-10T23:03:57.477Z,102310.67
2019-04-10T23:06:25.563Z,102314.14
2019-04-10T23:08:53.797Z,102316.33
2019-04-10T23:11:33.415Z,102316.33
2019-04-10T23:13:51.752Z,102318.48
2019-04-10T23:16:19.960Z,102318.45
2019-04-10T23:18:48.086Z,102319.72
2019-04-10T23:21:16.568Z,102325.33
2019-04-10T23:23:45.353Z,102316.25
2019-04-10T23:26:15.858Z,102318.88
2019-04-10T23:28:44.893Z,102325.41
2019-04-10T23:31:13.192Z,102327.58
2019-04-10T23:33:41.973Z,102327.17
2019-04-10T23:36:10.054Z,102328.52
2019-04-10T23:38:37.887Z,102328.06
2019-04-10T23:41:07.763Z,102325.95
2019-04-10T23:43:36.083Z,102325.54
2019-04-10T23:46:04.241Z,102328.95
2019-04-10T23:48:32.913Z,102325.52
2019-04-10T23:51:01.007Z,102336.36
2019-04-10T23:53:28.910Z,102332.01
2019-04-10T23:55:56.915Z,102337.21
2019-04-10T23:58:24.978Z,102336.76
